createdAt,value
2022-10-26T00:01:06.422Z,97816.69
2022-10-26T00:03:34.403Z,97806.78
2022-10-26T00:06:10.364Z,97792.50
2022-10-26T00:08:37.636Z,97808.88
2022-10-26T00:11:04.595Z,97798.66
2022-10-26T00:13:31.193Z,97792.91
2022-10-26T00:15:58.113Z,97806.09
2022-10-26T00:18:24.867Z,97822.94
2022-10-26T00:20:51.663Z,97814.38
2022-10-26T00:23:18.556Z,97828.78
2022-10-26T00:25:45.399Z,97837.97
2022-10-26T00:28:12.017Z,97816.22
2022-10-26T00:30:39.929Z,97797.50
2022-10-26T00:33:06.508Z,97818.09
2022-10-26T00:35:45.554Z,97815.81
2022-10-26T00:38:13.273Z,97836.53
2022-10-26T00:40:39.961Z,97804.84
2022-10-26T00:43:14.904Z,97824.56
2022-10-26T00:45:43.770Z,97809.50
2022-10-26T00:48:21.853Z,97809.44
2022-10-26T00:50:48.925Z,97810.50
2022-10-26T00:53:16.072Z,97815.25
2022-10-26T00:55:47.213Z,97822.34
2022-10-26T00:58:14.558Z,97814.47
2022-10-26T01:00:42.824Z,97786.06
2022-10-26T01:03:11.159Z,97816.31
2022-10-26T01:05:42.261Z,97790.91
2022-10-26T01:08:09.599Z,97834.47
2022-10-26T01:10:39.643Z,97809.91
2022-10-26T01:13:06.570Z,97840.94
2022-10-26T01:16:03.746Z,97839.50
2022-10-26T01:19:05.678Z,97843.19
2022-10-26T01:21:45.849Z,97842.38
2022-10-26T01:24:34.210Z,97844.63
2022-10-26T01:27:38.405Z,97831.25
2022-10-26T01:30:18.846Z,97836.81
2022-10-26T01:32:45.437Z,97846.09
2022-10-26T01:35:35.545Z,97823.91
2022-10-26T01:38:16.892Z,97841.88
2022-10-26T01:40:51.149Z,97843.47
2022-10-26T01:43:20.445Z,97828.06
2022-10-26T01:45:48.747Z,97847.97
2022-10-26T01:48:19.317Z,97837.13
2022-10-26T01:50:50.081Z,97846.97
2022-10-26T01:53:17.337Z,97817.81
2022-10-26T01:55:52.656Z,97823.78
2022-10-26T01:58:40.501Z,97851.94
2022-10-26T02:01:29.801Z,97838.38
2022-10-26T02:04:08.386Z,97854.00
2022-10-26T02:07:13.106Z,97842.69
2022-10-26T02:09:54.898Z,97855.84
2022-10-26T02:12:38.927Z,97835.28
2022-10-26T02:15:11.443Z,97855.41
2022-10-26T02:17:42.879Z,97846.09
2022-10-26T02:20:15.548Z,97862.34
2022-10-26T02:22:47.356Z,97868.56
2022-10-26T02:25:44.708Z,97863.00
2022-10-26T02:28:16.402Z,97867.47
2022-10-26T02:30:46.572Z,97861.34
2022-10-26T02:33:15.175Z,97851.72
2022-10-26T02:35:45.636Z,97832.00
2022-10-26T02:38:13.482Z,97836.28
2022-10-26T02:40:41.127Z,97871.25
2022-10-26T02:43:15.909Z,97889.16
2022-10-26T02:45:50.070Z,97888.75
2022-10-26T02:48:16.689Z,97864.50
2022-10-26T02:51:01.304Z,97888.53
2022-10-26T02:53:38.778Z,97876.41
2022-10-26T02:56:16.499Z,97862.44
2022-10-26T02:58:49.632Z,97887.72
2022-10-26T03:01:16.491Z,97888.31
2022-10-26T03:03:43.350Z,97884.44
2022-10-26T03:06:10.007Z,97882.13
2022-10-26T03:08:39.721Z,97891.56
2022-10-26T03:11:09.388Z,97863.59
2022-10-26T03:13:38.151Z,97877.41
2022-10-26T03:16:04.809Z,97893.06
2022-10-26T03:18:31.382Z,97895.13
2022-10-26T03:20:58.097Z,97883.34
2022-10-26T03:23:24.687Z,97895.09
2022-10-26T03:25:51.229Z,97881.06
2022-10-26T03:28:17.782Z,97896.34
2022-10-26T03:30:44.375Z,97883.53
2022-10-26T03:33:10.951Z,97912.78
2022-10-26T03:35:40.576Z,97914.44
2022-10-26T03:38:12.856Z,97897.16
2022-10-26T03:40:41.650Z,97925.13
2022-10-26T03:43:08.824Z,97921.63
2022-10-26T03:45:35.504Z,97943.19
2022-10-26T03:48:02.064Z,97946.28
2022-10-26T03:50:28.664Z,97924.72
2022-10-26T03:52:55.238Z,97930.88
2022-10-26T03:55:21.836Z,97944.44
2022-10-26T03:57:48.487Z,97941.09
2022-10-26T04:00:17.706Z,97931.06
2022-10-26T04:02:48.794Z,97965.03
2022-10-26T04:05:16.766Z,97952.44
2022-10-26T04:07:43.649Z,97951.63
2022-10-26T04:10:10.695Z,97927.09
2022-10-26T04:12:41.003Z,97975.25
2022-10-26T04:15:07.958Z,97943.53
2022-10-26T04:17:34.629Z,97974.81
2022-10-26T04:20:01.236Z,97953.56
2022-10-26T04:22:27.873Z,97951.25
2022-10-26T04:24:54.524Z,97986.00
2022-10-26T04:27:23.495Z,97953.34
2022-10-26T04:29:50.039Z,97969.09
2022-10-26T04:32:16.634Z,97990.63
2022-10-26T04:34:43.226Z,97956.66
2022-10-26T04:37:11.977Z,98000.47
2022-10-26T04:39:38.632Z,97981.47
2022-10-26T04:42:05.361Z,97986.19
2022-10-26T04:44:32.790Z,98004.47
2022-10-26T04:46:59.337Z,97993.53
2022-10-26T04:49:25.883Z,98002.25
2022-10-26T04:51:52.505Z,97980.44
2022-10-26T04:54:19.290Z,98014.56
2022-10-26T04:59:16.776Z,98023.63
2022-10-26T05:01:46.932Z,97999.25
2022-10-26T05:04:14.297Z,98017.25
2022-10-26T05:06:42.792Z,98037.72
2022-10-26T05:09:10.014Z,98037.81
2022-10-26T05:11:36.953Z,98049.28
2022-10-26T05:14:03.671Z,98046.22
2022-10-26T05:16:30.528Z,98032.56
2022-10-26T05:18:57.439Z,98047.63
2022-10-26T05:21:24.223Z,98037.38
2022-10-26T05:23:53.935Z,98039.75
2022-10-26T05:26:21.418Z,98033.69
2022-10-26T05:28:48.579Z,98060.13
2022-10-26T05:31:15.699Z,98066.63
2022-10-26T05:33:48.879Z,98038.25
2022-10-26T05:36:15.762Z,98031.25
2022-10-26T05:38:45.670Z,98074.09
2022-10-26T05:41:18.223Z,98060.19
2022-10-26T05:43:47.632Z,98051.06
2022-10-26T05:46:14.966Z,98075.84
2022-10-26T05:48:46.316Z,98074.09
2022-10-26T05:51:16.726Z,98069.44
2022-10-26T05:53:47.404Z,98077.13
2022-10-26T05:56:20.486Z,98074.34
2022-10-26T05:58:48.182Z,98094.38
2022-10-26T06:01:30.337Z,98076.13
2022-10-26T06:04:08.035Z,98100.91
2022-10-26T06:06:39.933Z,98095.38
2022-10-26T06:09:06.821Z,98092.56
2022-10-26T06:11:33.648Z,98101.22
2022-10-26T06:14:01.264Z,98084.63
2022-10-26T06:16:48.272Z,98105.78
2022-10-26T06:19:23.564Z,98115.28
2022-10-26T06:21:50.061Z,98118.16
2022-10-26T06:24:27.549Z,98117.66
2022-10-26T06:26:54.009Z,98121.91
2022-10-26T06:29:32.299Z,98133.41
2022-10-26T06:31:58.856Z,98137.81
2022-10-26T06:34:33.492Z,98138.16
2022-10-26T06:37:01.214Z,98145.25
2022-10-26T06:39:38.134Z,98146.69
2022-10-26T06:42:05.090Z,98144.22
2022-10-26T06:44:32.146Z,98149.25
2022-10-26T06:47:27.168Z,98148.59
2022-10-26T06:50:18.240Z,98126.56
2022-10-26T06:53:12.003Z,98141.97
2022-10-26T06:55:50.814Z,98149.84
2022-10-26T06:58:24.011Z,98173.47
2022-10-26T07:00:53.793Z,98150.19
2022-10-26T07:03:20.720Z,98168.47
2022-10-26T07:05:50.834Z,98172.34
2022-10-26T07:08:19.469Z,98168.91
2022-10-26T07:10:49.213Z,98179.22
2022-10-26T07:13:17.580Z,98164.78
2022-10-26T07:15:47.251Z,98164.72
2022-10-26T07:18:13.787Z,98164.50
2022-10-26T07:20:41.967Z,98193.09
2022-10-26T07:23:11.477Z,98188.38
2022-10-26T07:25:40.673Z,98194.28
2022-10-26T07:28:10.497Z,98205.69
2022-10-26T07:30:39.052Z,98213.53
2022-10-26T07:33:09.375Z,98220.84
2022-10-26T07:35:36.029Z,98220.94
2022-10-26T07:38:04.463Z,98213.91
2022-10-26T07:40:31.096Z,98222.69
2022-10-26T07:42:59.265Z,98231.84
2022-10-26T07:45:26.962Z,98237.00
2022-10-26T07:47:53.533Z,98225.94
2022-10-26T07:50:20.227Z,98230.00
2022-10-26T07:52:50.703Z,98233.25
2022-10-26T07:55:21.087Z,98238.28
2022-10-26T07:57:52.523Z,98249.41
2022-10-26T08:00:21.969Z,98253.41
2022-10-26T08:02:49.268Z,98245.50
2022-10-26T08:05:18.233Z,98256.72
2022-10-26T08:07:51.720Z,98259.16
2022-10-26T08:10:21.319Z,98249.00
2022-10-26T08:12:49.073Z,98259.28
2022-10-26T08:15:15.707Z,98270.09
2022-10-26T08:17:43.463Z,98247.25
2022-10-26T08:20:11.125Z,98270.78
2022-10-26T08:22:38.603Z,98271.06
2022-10-26T08:25:05.653Z,98263.19
2022-10-26T08:27:32.375Z,98274.34
2022-10-26T08:29:58.905Z,98267.84
2022-10-26T08:32:25.501Z,98255.78
2022-10-26T08:34:52.106Z,98278.06
2022-10-26T08:37:22.831Z,98286.06
2022-10-26T08:39:52.156Z,98266.75
2022-10-26T08:42:32.873Z,98278.84
2022-10-26T08:45:03.803Z,98277.78
2022-10-26T08:47:36.035Z,98274.31
2022-10-26T08:50:13.542Z,98286.19
2022-10-26T08:53:06.909Z,98280.00
2022-10-26T08:58:22.526Z,98278.34
2022-10-26T09:00:51.363Z,98287.13
2022-10-26T09:03:21.038Z,98266.72
2022-10-26T09:06:04.467Z,98289.66
2022-10-26T09:08:39.448Z,98270.00
2022-10-26T09:11:30.737Z,98283.34
2022-10-26T09:14:06.002Z,98278.44
2022-10-26T09:16:36.816Z,98255.47
2022-10-26T09:19:21.393Z,98282.19
2022-10-26T09:21:58.564Z,98276.59
2022-10-26T09:24:39.572Z,98281.47
2022-10-26T09:27:27.502Z,98271.09
2022-10-26T09:29:56.558Z,98264.47
2022-10-26T09:32:41.283Z,98261.94
2022-10-26T09:35:26.145Z,98281.25
2022-10-26T09:38:05.562Z,98264.06
2022-10-26T09:41:20.428Z,98270.72
2022-10-26T09:44:00.925Z,98274.59
2022-10-26T09:46:33.672Z,98267.00
2022-10-26T09:49:06.505Z,98252.53
2022-10-26T09:51:42.609Z,98263.13
2022-10-26T09:54:21.895Z,98269.38
2022-10-26T09:56:54.297Z,98274.63
2022-10-26T09:59:24.913Z,98240.69
2022-10-26T10:01:51.873Z,98263.28
2022-10-26T10:04:23.055Z,98270.59
2022-10-26T10:07:03.346Z,98278.13
2022-10-26T10:09:29.907Z,98269.25
2022-10-26T10:11:59.623Z,98265.88
2022-10-26T10:14:37.367Z,98266.44
2022-10-26T10:17:19.449Z,98262.59
2022-10-26T10:19:48.220Z,98278.25
2022-10-26T10:22:14.657Z,98273.50
2022-10-26T10:24:43.547Z,98276.41
2022-10-26T10:27:12.706Z,98275.28
2022-10-26T10:29:50.791Z,98270.03
2022-10-26T10:32:21.032Z,98276.00
2022-10-26T10:34:51.764Z,98279.72
2022-10-26T10:37:24.276Z,98284.63
2022-10-26T10:39:51.086Z,98277.13
2022-10-26T10:42:23.609Z,98266.81
2022-10-26T10:44:53.074Z,98289.56
2022-10-26T10:50:14.486Z,98276.56
2022-10-26T10:52:42.063Z,98277.09
2022-10-26T10:55:14.563Z,98283.38
2022-10-26T10:57:59.290Z,98279.84
2022-10-26T11:00:26.173Z,98283.34
2022-10-26T11:03:24.858Z,98291.75
2022-10-26T11:06:09.401Z,98286.56
2022-10-26T11:09:19.715Z,98288.25
2022-10-26T11:11:52.538Z,98283.63
2022-10-26T11:14:50.262Z,98280.25
2022-10-26T11:17:29.166Z,98292.13
2022-10-26T11:20:12.560Z,98289.97
2022-10-26T11:22:58.859Z,98286.16
2022-10-26T11:25:30.181Z,98291.97
2022-10-26T11:28:04.968Z,98285.81
2022-10-26T11:30:34.645Z,98287.69
2022-10-26T11:33:06.806Z,98282.00
2022-10-26T11:35:43.882Z,98290.38
2022-10-26T11:38:46.171Z,98295.97
2022-10-26T11:41:48.824Z,98292.41
2022-10-26T11:44:29.465Z,98290.72
2022-10-26T11:47:02.710Z,98267.94
2022-10-26T11:49:45.318Z,98276.47
2022-10-26T11:52:36.594Z,98273.13
2022-10-26T11:55:04.888Z,98265.63
2022-10-26T11:57:36.992Z,98265.00
2022-10-26T12:00:08.493Z,98267.91
2022-10-26T12:05:15.383Z,98266.47
2022-10-26T12:07:50.482Z,98245.19
2022-10-26T12:10:32.481Z,98261.31
2022-10-26T12:13:09.787Z,98261.34
2022-10-26T12:16:02.328Z,98265.09
2022-10-26T12:18:56.584Z,98247.69
2022-10-26T12:21:30.050Z,98253.94
2022-10-26T12:24:02.477Z,98245.25
2022-10-26T12:26:30.123Z,98255.03
2022-10-26T12:29:02.928Z,98251.78
2022-10-26T12:31:32.316Z,98255.59
2022-10-26T12:34:00.083Z,98239.25
2022-10-26T12:36:57.545Z,98252.88
2022-10-26T12:39:29.816Z,98245.47
2022-10-26T12:42:10.190Z,98246.88
2022-10-26T12:45:00.966Z,98236.72
2022-10-26T12:47:30.306Z,98257.16
2022-10-26T12:50:06.118Z,98260.44
2022-10-26T12:52:54.759Z,98253.91
2022-10-26T12:55:51.394Z,98251.28
2022-10-26T12:58:42.907Z,98250.31
2022-10-26T13:01:29.848Z,98252.56
2022-10-26T13:04:02.388Z,98250.00
2022-10-26T13:06:37.545Z,98255.34
2022-10-26T13:09:21.073Z,98257.59
2022-10-26T13:11:55.578Z,98244.41
2022-10-26T13:14:25.602Z,98254.16
2022-10-26T13:16:52.841Z,98255.72
2022-10-26T13:19:36.485Z,98238.63
2022-10-26T13:22:03.173Z,98248.44
2022-10-26T13:24:32.681Z,98251.94
2022-10-26T13:27:08.975Z,98248.53
2022-10-26T13:30:05.612Z,98247.38
2022-10-26T13:32:49.808Z,98243.44
2022-10-26T13:35:20.425Z,98226.97
2022-10-26T13:37:50.520Z,98231.94
2022-10-26T13:40:26.960Z,98225.41
2022-10-26T13:42:56.957Z,98239.19
2022-10-26T13:45:30.437Z,98238.00
2022-10-26T13:48:18.801Z,98241.53
2022-10-26T13:53:45.608Z,98232.53
2022-10-26T13:56:26.278Z,98233.00
2022-10-26T13:59:00.843Z,98225.75
2022-10-26T14:01:28.783Z,98228.06
2022-10-26T14:03:56.023Z,98231.16
2022-10-26T14:06:33.999Z,98232.25
2022-10-26T14:09:04.788Z,98224.59
2022-10-26T14:11:35.871Z,98214.19
2022-10-26T14:14:04.148Z,98205.16
2022-10-26T14:16:34.352Z,98224.66
2022-10-26T14:19:01.228Z,98223.22
2022-10-26T14:21:27.977Z,98221.94
2022-10-26T14:23:58.183Z,98222.63
2022-10-26T14:26:50.904Z,98237.75
2022-10-26T14:29:20.620Z,98217.56
2022-10-26T14:31:51.695Z,98228.41
2022-10-26T14:34:23.139Z,98209.22
2022-10-26T14:37:03.064Z,98223.53
2022-10-26T14:39:40.610Z,98225.06
2022-10-26T14:42:29.085Z,98221.88
2022-10-26T14:44:57.265Z,98208.00
2022-10-26T14:47:35.567Z,98218.81
2022-10-26T14:50:04.468Z,98204.94
2022-10-26T14:52:36.022Z,98219.91
2022-10-26T14:55:10.762Z,98220.75
2022-10-26T14:57:41.822Z,98222.63
2022-10-26T15:00:23.804Z,98226.19
2022-10-26T15:02:54.907Z,98220.97
2022-10-26T15:05:24.424Z,98224.47
2022-10-26T15:07:52.765Z,98183.56
2022-10-26T15:10:41.011Z,98227.63
2022-10-26T15:13:20.478Z,98222.75
2022-10-26T15:15:49.960Z,98224.09
2022-10-26T15:18:27.793Z,98216.13
2022-10-26T15:20:55.998Z,98228.00
2022-10-26T15:23:24.232Z,98204.41
2022-10-26T15:26:13.060Z,98227.34
2022-10-26T15:28:44.312Z,98217.59
2022-10-26T15:31:13.081Z,98224.09
2022-10-26T15:33:52.643Z,98226.69
2022-10-26T15:36:21.662Z,98217.75
2022-10-26T15:38:50.028Z,98220.03
2022-10-26T15:41:31.143Z,98223.06
2022-10-26T15:44:01.601Z,98221.44
2022-10-26T15:46:33.182Z,98232.28
2022-10-26T15:49:05.065Z,98239.31
2022-10-26T15:51:31.818Z,98223.97
2022-10-26T15:53:59.408Z,98229.53
2022-10-26T15:56:26.730Z,98224.41
2022-10-26T15:58:54.897Z,98230.53
2022-10-26T16:01:26.973Z,98225.47
2022-10-26T16:03:53.688Z,98237.88
2022-10-26T16:06:30.948Z,98244.47
2022-10-26T16:09:00.537Z,98233.28
2022-10-26T16:11:27.438Z,98224.09
2022-10-26T16:13:56.072Z,98233.50
2022-10-26T16:16:25.558Z,98236.31
2022-10-26T16:19:06.112Z,98232.09
2022-10-26T16:21:41.887Z,98236.00
2022-10-26T16:24:09.828Z,98239.63
2022-10-26T16:26:36.461Z,98232.69
2022-10-26T16:29:03.300Z,98227.78
2022-10-26T16:31:29.839Z,98233.75
2022-10-26T16:34:00.191Z,98228.72
2022-10-26T16:36:29.868Z,98226.63
2022-10-26T16:38:56.516Z,98236.69
2022-10-26T16:41:23.112Z,98244.16
2022-10-26T16:43:49.658Z,98244.06
2022-10-26T16:46:22.962Z,98240.06
2022-10-26T16:48:50.299Z,98243.47
2022-10-26T16:51:19.688Z,98246.69
2022-10-26T16:53:48.150Z,98239.00
2022-10-26T16:56:18.157Z,98247.66
2022-10-26T16:58:44.862Z,98237.94
2022-10-26T17:01:18.120Z,98253.81
2022-10-26T17:03:48.316Z,98254.66
2022-10-26T17:06:15.040Z,98255.34
2022-10-26T17:08:42.128Z,98263.56
2022-10-26T17:11:11.835Z,98272.09
2022-10-26T17:13:40.225Z,98261.00
2022-10-26T17:16:16.039Z,98277.34
2022-10-26T17:18:43.908Z,98274.59
2022-10-26T17:21:12.796Z,98277.19
2022-10-26T17:23:39.477Z,98270.84
2022-10-26T17:26:08.674Z,98269.50
2022-10-26T17:28:35.849Z,98282.94
2022-10-26T17:31:07.845Z,98284.13
2022-10-26T17:33:36.292Z,98271.91
2022-10-26T17:36:05.325Z,98275.09
2022-10-26T17:38:37.911Z,98263.25
2022-10-26T17:41:10.547Z,98283.41
2022-10-26T17:43:39.280Z,98269.94
2022-10-26T17:46:32.379Z,98283.38
2022-10-26T17:49:00.302Z,98286.34
2022-10-26T17:51:29.176Z,98294.84
2022-10-26T17:54:00.458Z,98294.66
2022-10-26T17:56:30.552Z,98280.66
2022-10-26T17:59:00.680Z,98274.94
2022-10-26T18:01:32.191Z,98287.81
2022-10-26T18:03:59.228Z,98295.88
2022-10-26T18:06:29.516Z,98307.63
2022-10-26T18:08:58.201Z,98291.13
2022-10-26T18:11:27.706Z,98305.81
2022-10-26T18:13:57.950Z,98307.97
2022-10-26T18:16:31.246Z,98305.44
2022-10-26T18:19:05.077Z,98314.66
2022-10-26T18:21:34.946Z,98326.22
2022-10-26T18:24:01.896Z,98319.56
2022-10-26T18:26:31.711Z,98332.72
2022-10-26T18:29:02.194Z,98329.34
2022-10-26T18:31:30.817Z,98336.41
2022-10-26T18:34:02.944Z,98316.38
2022-10-26T18:36:33.437Z,98333.53
2022-10-26T18:39:00.684Z,98337.72
2022-10-26T18:41:30.708Z,98336.22
2022-10-26T18:43:59.915Z,98326.53
2022-10-26T18:46:30.176Z,98341.47
2022-10-26T18:49:01.328Z,98330.72
2022-10-26T18:51:34.370Z,98334.44
2022-10-26T18:54:01.573Z,98321.69
2022-10-26T18:56:55.742Z,98331.19
2022-10-26T18:59:22.345Z,98336.78
2022-10-26T19:01:49.873Z,98337.78
2022-10-26T19:04:16.659Z,98334.28
2022-10-26T19:06:47.372Z,98347.09
2022-10-26T19:09:18.742Z,98327.06
2022-10-26T19:11:45.890Z,98339.44
2022-10-26T19:14:14.843Z,98333.69
2022-10-26T19:16:46.931Z,98318.41
2022-10-26T19:19:15.510Z,98342.09
2022-10-26T19:21:42.254Z,98340.44
2022-10-26T19:24:19.911Z,98332.81
2022-10-26T19:26:47.251Z,98347.03
2022-10-26T19:29:16.568Z,98349.72
2022-10-26T19:31:48.309Z,98343.72
2022-10-26T19:34:16.236Z,98321.00
2022-10-26T19:37:06.179Z,98355.69
2022-10-26T19:39:32.768Z,98354.41
2022-10-26T19:42:01.455Z,98330.72
2022-10-26T19:44:27.989Z,98352.75
2022-10-26T19:46:54.558Z,98319.59
2022-10-26T19:49:21.216Z,98352.75
2022-10-26T19:51:48.398Z,98361.41
2022-10-26T19:54:15.015Z,98347.38
2022-10-26T19:56:41.574Z,98344.88
2022-10-26T19:59:11.012Z,98343.00
2022-10-26T20:01:37.698Z,98355.78
2022-10-26T20:04:05.042Z,98360.84
2022-10-26T20:06:34.343Z,98316.44
2022-10-26T20:09:04.385Z,98361.34
2022-10-26T20:11:36.535Z,98363.44
2022-10-26T20:14:06.755Z,98361.25
2022-10-26T20:16:33.329Z,98362.75
2022-10-26T20:19:02.941Z,98379.56
2022-10-26T20:21:35.334Z,98347.19
2022-10-26T20:24:04.658Z,98367.72
2022-10-26T20:26:33.340Z,98366.44
2022-10-26T20:29:03.867Z,98349.94
2022-10-26T20:31:33.283Z,98364.88
2022-10-26T20:34:01.359Z,98386.44
2022-10-26T20:36:27.922Z,98386.63
2022-10-26T20:38:54.764Z,98391.03
2022-10-26T20:41:21.705Z,98383.84
2022-10-26T20:43:51.355Z,98367.44
2022-10-26T20:46:25.782Z,98394.50
2022-10-26T20:48:54.147Z,98407.03
2022-10-26T20:51:57.035Z,98398.41
2022-10-26T20:55:03.937Z,98405.38
2022-10-26T20:57:35.059Z,98400.81
2022-10-26T21:00:10.357Z,98404.09
2022-10-26T21:02:36.990Z,98401.59
2022-10-26T21:05:04.302Z,98377.94
2022-10-26T21:07:33.242Z,98397.63
2022-10-26T21:09:59.791Z,98397.78
2022-10-26T21:12:26.404Z,98402.19
2022-10-26T21:14:52.954Z,98393.09
2022-10-26T21:17:19.487Z,98388.81
2022-10-26T21:19:46.039Z,98385.44
2022-10-26T21:22:12.693Z,98382.44
2022-10-26T21:24:39.274Z,98401.44
2022-10-26T21:27:05.827Z,98391.75
2022-10-26T21:29:34.736Z,98409.91
2022-10-26T21:32:01.447Z,98422.97
2022-10-26T21:34:27.973Z,98397.16
2022-10-26T21:36:54.506Z,98401.22
2022-10-26T21:39:21.082Z,98399.78
2022-10-26T21:41:47.681Z,98414.50
2022-10-26T21:44:34.061Z,98389.97
2022-10-26T21:47:00.806Z,98414.50
2022-10-26T21:49:27.435Z,98392.78
2022-10-26T21:51:53.971Z,98388.56
2022-10-26T21:54:20.515Z,98408.25
2022-10-26T21:56:47.047Z,98406.97
2022-10-26T21:59:13.600Z,98385.63
2022-10-26T22:01:40.593Z,98412.47
2022-10-26T22:04:07.270Z,98414.84
2022-10-26T22:06:36.929Z,98391.31
2022-10-26T22:09:03.717Z,98392.53
2022-10-26T22:11:31.454Z,98420.31
2022-10-26T22:13:57.966Z,98420.63
2022-10-26T22:16:30.394Z,98405.94
2022-10-26T22:18:59.160Z,98420.53
2022-10-26T22:21:27.303Z,98409.31
2022-10-26T22:23:54.163Z,98392.91
2022-10-26T22:26:25.207Z,98399.63
2022-10-26T22:28:54.047Z,98417.16
2022-10-26T22:31:23.552Z,98416.16
2022-10-26T22:33:55.357Z,98382.22
2022-10-26T22:36:22.564Z,98410.22
2022-10-26T22:38:50.312Z,98402.09
2022-10-26T22:41:17.921Z,98365.88
2022-10-26T22:43:44.471Z,98404.22
2022-10-26T22:46:16.341Z,98387.19
2022-10-26T22:48:45.398Z,98405.56
2022-10-26T22:51:18.571Z,98393.78
2022-10-26T22:53:45.872Z,98386.38
2022-10-26T22:56:14.248Z,98390.59
2022-10-26T22:58:40.886Z,98388.75
2022-10-26T23:01:13.236Z,98385.19
2022-10-26T23:03:43.325Z,98370.28
2022-10-26T23:06:15.295Z,98379.09
2022-10-26T23:08:41.975Z,98363.22
2022-10-26T23:11:12.065Z,98382.59
2022-10-26T23:13:42.420Z,98383.53
2022-10-26T23:16:18.072Z,98377.56
2022-10-26T23:18:44.611Z,98386.34
2022-10-26T23:21:15.341Z,98395.50
2022-10-26T23:23:42.068Z,98380.50
2022-10-26T23:26:13.547Z,98352.94
2022-10-26T23:28:43.807Z,98394.72
2022-10-26T23:31:23.085Z,98387.38
2022-10-26T23:33:51.286Z,98381.50
2022-10-26T23:36:18.518Z,98393.44
2022-10-26T23:38:45.568Z,98399.53
2022-10-26T23:41:15.181Z,98370.84
2022-10-26T23:43:42.383Z,98395.19
2022-10-26T23:46:09.461Z,98364.41
2022-10-26T23:48:37.088Z,98382.13
2022-10-26T23:51:03.729Z,98367.91
2022-10-26T23:53:30.231Z,98369.00
2022-10-26T23:55:56.736Z,98367.84
2022-10-26T23:58:23.251Z,98387.59
